Time;durP1;ratioP1;P1;durP2;ratioP2;P2;SDS_P1;SDS_P2;PMS_P1;PMS_P2;Temp;Humidity;BMP_temperature;BMP_pressure;BME280_temperature;BME280_humidity;BME280_pressure;Samples;Min_cycle;Max_cycle;Signal;HPM_P1;HPM_P2
2022/07/05 04:19:41;;;;;;;6.50;2.97;;;;;;;;;;5132078;27;1206982;-63
2022/07/05 04:22:07;;;;;;;8.23;3.58;;;;;;;;;;5166258;27;20047;-64
2022/07/05 04:25:16;;;;;;;5.68;3.55;;;;;;;;;;5163379;27;20058;-64
2022/07/05 04:27:23;;;;;;;5.00;3.15;;;;;;;;;;5165765;27;20051;-64
2022/07/05 04:29:49;;;;;;;5.95;4.18;;;;;;;;;;5162587;27;20051;-65
2022/07/05 04:32:15;;;;;;;6.28;3.95;;;;;;;;;;5167224;27;20051;-64
2022/07/05 04:34:42;;;;;;;5.65;3.60;;;;;;;;;;5164525;27;20506;-64
2022/07/05 04:37:08;;;;;;;6.57;4.30;;;;;;;;;;5166529;27;20504;-64
2022/07/05 04:39:34;;;;;;;4.32;3.88;;;;;;;;;;5168847;27;20047;-64
2022/07/05 04:42:01;;;;;;;6.63;4.72;;;;;;;;;;5163396;27;20050;-64
2022/07/05 04:44:27;;;;;;;5.18;4.50;;;;;;;;;;5167953;27;20059;-64
2022/07/05 04:46:55;;;;;;;10.10;4.97;;;;;;;;;;5168471;27;20047;-64
2022/07/05 04:49:21;;;;;;;11.10;6.05;;;;;;;;;;5161747;27;20047;-65
2022/07/05 04:51:47;;;;;;;8.95;5.40;;;;;;;;;;5149490;27;20051;-64
2022/07/05 04:54:14;;;;;;;9.07;5.40;;;;;;;;;;5152936;27;20058;-64
2022/07/05 04:56:40;;;;;;;9.50;5.43;;;;;;;;;;5152119;27;20059;-65
2022/07/05 04:59:06;;;;;;;7.60;5.63;;;;;;;;;;5169571;27;20516;-64
2022/07/05 05:01:33;;;;;;;13.20;5.53;;;;;;;;;;5168578;27;20051;-64
2022/07/05 05:04:00;;;;;;;5.57;5.05;;;;;;;;;;5166458;27;20070;-64
2022/07/05 05:06:26;;;;;;;9.00;5.32;;;;;;;;;;5154396;27;20051;-64
2022/07/05 05:08:54;;;;;;;8.70;4.97;;;;;;;;;;5161487;27;20047;-64
2022/07/05 05:11:20;;;;;;;10.10;6.20;;;;;;;;;;5167634;27;20057;-64
2022/07/05 05:13:46;;;;;;;7.00;6.20;;;;;;;;;;5168240;27;20046;-64
2022/07/05 05:16:13;;;;;;;8.43;5.35;;;;;;;;;;5168074;27;20151;-64
2022/07/05 05:18:39;;;;;;;9.38;6.55;;;;;;;;;;5162829;27;20051;-64
2022/07/05 05:21:06;;;;;;;6.97;6.28;;;;;;;;;;5168174;27;20050;-64
2022/07/05 05:23:32;;;;;;;10.80;7.15;;;;;;;;;;5168370;27;20047;-64
2022/07/05 05:25:58;;;;;;;8.50;6.80;;;;;;;;;;5160135;27;20046;-64
2022/07/05 05:28:25;;;;;;;7.13;6.07;;;;;;;;;;5161390;27;20049;-64
2022/07/05 05:30:51;;;;;;;9.25;5.97;;;;;;;;;;5142311;27;20047;-64
2022/07/05 05:33:17;;;;;;;7.35;5.40;;;;;;;;;;5152616;27;20145;-64
2022/07/05 05:35:46;;;;;;;8.60;7.07;;;;;;;;;;5140686;27;20522;-64
2022/07/05 05:38:12;;;;;;;10.95;6.55;;;;;;;;;;5150626;27;20055;-64
2022/07/05 05:40:41;;;;;;;11.45;6.53;;;;;;;;;;5134572;27;20494;-64
2022/07/05 05:43:07;;;;;;;8.93;6.07;;;;;;;;;;5146701;27;20058;-65
2022/07/05 05:45:33;;;;;;;11.63;7.00;;;;;;;;;;5154954;27;20051;-64
2022/07/05 05:48:00;;;;;;;11.45;7.88;;;;;;;;;;5142709;27;20051;-64
2022/07/05 05:50:33;;;;;;;12.40;8.25;;;;;;;;;;5146973;27;20100;-64
2022/07/05 05:53:00;;;;;;;12.02;7.07;;;;;;;;;;5148670;27;20047;-65
2022/07/05 05:55:27;;;;;;;11.73;7.20;;;;;;;;;;5141136;27;20058;-66
2022/07/05 05:58:11;;;;;;;9.55;7.43;;;;;;;;;;5150429;27;20054;-66
2022/07/05 06:00:38;;;;;;;14.00;6.90;;;;;;;;;;5145851;27;20062;-65
2022/07/05 06:03:04;;;;;;;8.63;6.32;;;;;;;;;;5147022;27;20047;-65
2022/07/05 06:05:30;;;;;;;9.55;6.90;;;;;;;;;;5152004;27;20127;-67
2022/07/05 06:07:57;;;;;;;10.02;5.97;;;;;;;;;;5140581;27;20072;-65
2022/07/05 06:10:24;;;;;;;9.95;6.13;;;;;;;;;;5147336;27;20510;-63
2022/07/05 06:12:51;;;;;;;8.60;5.80;;;;;;;;;;5142187;27;20054;-63
2022/07/05 06:15:18;;;;;;;6.97;5.90;;;;;;;;;;5141501;27;20802;-63
2022/07/05 06:17:45;;;;;;;6.20;5.25;;;;;;;;;;5142168;27;20048;-63
2022/07/05 06:20:13;;;;;;;8.30;5.13;;;;;;;;;;5141737;27;20051;-64
2022/07/05 06:22:40;;;;;;;5.03;4.45;;;;;;;;;;5143407;27;20043;-64
2022/07/05 06:25:06;;;;;;;9.20;4.90;;;;;;;;;;5143038;27;20532;-64
2022/07/05 06:27:52;;;;;;;5.72;4.18;;;;;;;;;;5149282;27;20154;-63
2022/07/05 06:30:20;;;;;;;5.15;3.90;;;;;;;;;;5144582;27;20502;-65
2022/07/05 06:32:47;;;;;;;8.65;4.40;;;;;;;;;;5138918;27;20051;-65
2022/07/05 06:35:14;;;;;;;6.10;3.17;;;;;;;;;;5153077;27;20051;-66
2022/07/05 06:37:46;;;;;;;8.85;3.92;;;;;;;;;;5141044;27;20561;-66
2022/07/05 06:40:13;;;;;;;6.82;3.22;;;;;;;;;;5143207;27;20514;-68
2022/07/05 06:42:43;;;;;;;6.80;3.50;;;;;;;;;;5141090;27;20926;-66
2022/07/05 06:45:10;;;;;;;11.88;2.72;;;;;;;;;;5141785;27;20053;-66
2022/07/05 06:47:36;;;;;;;3.55;2.45;;;;;;;;;;5142201;27;20485;-64
2022/07/05 06:50:04;;;;;;;3.88;2.80;;;;;;;;;;5143169;27;20486;-65
2022/07/05 06:52:31;;;;;;;4.55;2.28;;;;;;;;;;5142690;27;20922;-64
2022/07/05 06:55:01;;;;;;;4.30;2.40;;;;;;;;;;5142864;27;20047;-66
2022/07/05 06:57:27;;;;;;;3.47;2.30;;;;;;;;;;5141335;27;20055;-64
2022/07/05 06:59:56;;;;;;;6.63;2.53;;;;;;;;;;5144292;27;20058;-66
2022/07/05 07:02:24;;;;;;;3.17;1.88;;;;;;;;;;5150775;27;20057;-64
2022/07/05 07:04:51;;;;;;;3.22;2.60;;;;;;;;;;5153457;27;20061;-63
2022/07/05 07:10:20;;;;;;;6.47;2.33;;;;;;;;;;5141455;27;20043;-66
2022/07/05 07:12:53;;;;;;;4.72;2.10;;;;;;;;;;5146852;27;20166;-69
2022/07/05 07:15:19;;;;;;;4.00;2.28;;;;;;;;;;5143911;27;20055;-68
2022/07/05 07:17:46;;;;;;;4.65;2.13;;;;;;;;;;5144980;27;20051;-66
2022/07/05 07:20:12;;;;;;;2.58;1.98;;;;;;;;;;5144611;27;20622;-65
2022/07/05 07:22:39;;;;;;;5.85;2.35;;;;;;;;;;5149678;27;20050;-66
2022/07/05 07:25:08;;;;;;;8.02;2.22;;;;;;;;;;5137484;27;20067;-65
2022/07/05 07:28:00;;;;;;;4.97;2.45;;;;;;;;;;5142943;27;20047;-66
2022/07/05 07:30:28;;;;;;;4.25;1.98;;;;;;;;;;5149533;27;20054;-66
2022/07/05 07:32:54;;;;;;;4.20;2.08;;;;;;;;;;5143778;27;20051;-67
2022/07/05 07:35:21;;;;;;;5.15;1.92;;;;;;;;;;5141505;27;20525;-67
2022/07/05 07:37:47;;;;;;;5.65;1.70;;;;;;;;;;5142689;27;20062;-67
2022/07/05 07:40:14;;;;;;;3.85;1.92;;;;;;;;;;5142299;27;20051;-67
2022/07/05 07:42:40;;;;;;;4.55;2.20;;;;;;;;;;5151954;27;20602;-67
2022/07/05 07:45:07;;;;;;;4.55;1.98;;;;;;;;;;5147280;27;20058;-67
2022/07/05 07:47:34;;;;;;;2.72;2.10;;;;;;;;;;5140707;27;20142;-65
2022/07/05 07:50:01;;;;;;;4.45;2.08;;;;;;;;;;5143427;27;20170;-68
2022/07/05 07:52:27;;;;;;;3.28;2.28;;;;;;;;;;5141771;27;20062;-67
2022/07/05 07:54:53;;;;;;;4.13;2.30;;;;;;;;;;5151605;27;20046;-66
2022/07/05 07:57:21;;;;;;;2.35;1.90;;;;;;;;;;5146614;27;20059;-65
2022/07/05 07:59:47;;;;;;;3.92;1.83;;;;;;;;;;5137957;27;20057;-63
2022/07/05 08:02:14;;;;;;;6.47;1.60;;;;;;;;;;5144207;27;20053;-65
2022/07/05 08:04:40;;;;;;;2.30;1.50;;;;;;;;;;5141561;27;20059;-66
2022/07/05 08:07:06;;;;;;;3.95;1.80;;;;;;;;;;5140688;27;20057;-67
2022/07/05 08:09:33;;;;;;;1.58;1.10;;;;;;;;;;5140652;27;20054;-66
2022/07/05 08:11:59;;;;;;;4.90;1.67;;;;;;;;;;5147009;27;20047;-64
2022/07/05 08:14:24;;;;;;;5.43;1.80;;;;;;;;;;5149686;27;20451;-63
2022/07/05 08:16:51;;;;;;;6.10;1.70;;;;;;;;;;5150199;27;20316;-63
2022/07/05 08:22:04;;;;;;;4.47;1.75;;;;;;;;;;5150272;27;20047;-63
2022/07/05 08:24:30;;;;;;;9.15;2.00;;;;;;;;;;5147156;27;20418;-64
2022/07/05 08:26:56;;;;;;;22.60;2.03;;;;;;;;;;5140259;27;20052;-62
2022/07/05 08:29:23;;;;;;;4.70;1.60;;;;;;;;;;5143115;27;20043;-62
2022/07/05 08:31:51;;;;;;;2.75;1.50;;;;;;;;;;5142099;27;20063;-64
2022/07/05 08:34:18;;;;;;;3.28;1.65;;;;;;;;;;5140666;27;20055;-64
2022/07/05 08:36:44;;;;;;;2.90;1.80;;;;;;;;;;5137766;27;20053;-64
2022/07/05 08:39:11;;;;;;;2.35;2.13;;;;;;;;;;5142424;27;20051;-64
2022/07/05 08:41:38;;;;;;;5.90;1.80;;;;;;;;;;5140373;27;20059;-64
2022/07/05 08:44:06;;;;;;;4.28;2.10;;;;;;;;;;5145877;27;20054;-64
2022/07/05 08:46:33;;;;;;;4.55;2.10;;;;;;;;;;5147481;27;20059;-63
2022/07/05 08:49:01;;;;;;;4.32;2.42;;;;;;;;;;5146075;27;20083;-63
2022/07/05 08:51:40;;;;;;;3.58;1.90;;;;;;;;;;5140920;27;20094;-65
2022/07/05 08:54:09;;;;;;;4.40;1.75;;;;;;;;;;5140555;27;20055;-64
2022/07/05 08:56:36;;;;;;;2.17;1.45;;;;;;;;;;5145916;27;20047;-64
2022/07/05 08:59:22;;;;;;;7.55;1.40;;;;;;;;;;5140730;27;20060;-63
2022/07/05 09:01:49;;;;;;;2.60;1.60;;;;;;;;;;5142140;27;20055;-64
2022/07/05 09:04:17;;;;;;;2.55;2.00;;;;;;;;;;5143181;27;20078;-62
2022/07/05 09:06:45;;;;;;;4.30;2.53;;;;;;;;;;5135378;27;20441;-62
2022/07/05 09:09:12;;;;;;;4.93;2.53;;;;;;;;;;5135763;27;20082;-63
2022/07/05 09:11:41;;;;;;;6.28;2.20;;;;;;;;;;5143478;27;20047;-63
2022/07/05 09:14:25;;;;;;;4.93;1.90;;;;;;;;;;5145562;27;20150;-64
